createdAt,value
2023-02-23T00:01:27.407Z,91.60
2023-02-23T00:03:56.668Z,91.40
2023-02-23T00:06:25.369Z,91.70
2023-02-23T00:08:55.278Z,91.70
2023-02-23T00:11:23.644Z,91.60
2023-02-23T00:13:52.222Z,91.20
2023-02-23T00:16:22.016Z,91.40
2023-02-23T00:18:53.723Z,91.40
2023-02-23T00:21:24.741Z,91.40
2023-02-23T00:23:56.774Z,91.40
2023-02-23T00:26:26.546Z,91.40
2023-02-23T00:28:55.130Z,91.30
2023-02-23T00:31:26.140Z,91.30
2023-02-23T00:33:55.032Z,91.10
2023-02-23T00:36:24.808Z,91.00
2023-02-23T00:38:56.249Z,91.00
2023-02-23T00:41:28.383Z,90.90
2023-02-23T00:43:57.629Z,90.70
2023-02-23T00:46:28.055Z,90.50
2023-02-23T00:48:59.196Z,90.60
2023-02-23T00:51:30.899Z,90.60
2023-02-23T00:54:01.626Z,90.60
2023-02-23T00:56:29.660Z,90.60
2023-02-23T00:58:58.884Z,90.40
2023-02-23T01:01:27.788Z,90.10
2023-02-23T01:03:55.806Z,90.20
2023-02-23T01:06:24.843Z,90.30
2023-02-23T01:08:56.716Z,90.30
2023-02-23T01:11:28.794Z,90.10
2023-02-23T01:13:58.628Z,90.10
2023-02-23T01:16:28.957Z,90.20
2023-02-23T01:18:58.241Z,90.30
2023-02-23T01:21:28.786Z,90.20
2023-02-23T01:23:57.540Z,90.20
2023-02-23T01:26:28.675Z,90.20
2023-02-23T01:28:58.923Z,90.30
2023-02-23T01:31:27.883Z,90.30
2023-02-23T01:33:56.809Z,90.20
2023-02-23T01:36:25.616Z,90.20
2023-02-23T01:38:55.249Z,90.00
2023-02-23T01:41:23.792Z,89.90
2023-02-23T01:43:58.775Z,90.20
2023-02-23T01:46:27.345Z,90.30
2023-02-23T01:48:56.761Z,90.20
2023-02-23T01:51:28.176Z,90.20
2023-02-23T01:54:01.617Z,90.20
2023-02-23T01:56:33.801Z,90.00
2023-02-23T01:59:06.812Z,90.10
2023-02-23T02:01:38.586Z,90.20
2023-02-23T02:04:06.791Z,90.30
2023-02-23T02:06:36.852Z,90.40
2023-02-23T02:09:10.102Z,90.50
2023-02-23T02:11:39.294Z,90.50
2023-02-23T02:14:13.045Z,90.50
2023-02-23T02:17:02.397Z,90.60
2023-02-23T02:20:06.381Z,90.60
2023-02-23T02:23:03.422Z,90.70
2023-02-23T02:25:52.502Z,90.70
2023-02-23T02:28:45.027Z,90.70
2023-02-23T02:31:39.213Z,90.70
2023-02-23T02:34:46.718Z,90.70
2023-02-23T02:37:33.125Z,90.80
2023-02-23T02:40:16.504Z,90.70
2023-02-23T02:43:00.775Z,90.30
2023-02-23T02:45:33.455Z,90.40
2023-02-23T02:48:11.711Z,90.40
2023-02-23T02:50:47.772Z,90.70
2023-02-23T02:53:21.684Z,90.80
2023-02-23T02:55:50.300Z,90.90
2023-02-23T02:58:19.475Z,90.90
2023-02-23T03:01:07.515Z,90.70
2023-02-23T03:03:55.378Z,90.70
2023-02-23T03:06:48.761Z,90.60
2023-02-23T03:09:54.873Z,90.80
2023-02-23T03:12:50.243Z,90.90
2023-02-23T03:15:55.881Z,91.30
2023-02-23T03:18:58.959Z,91.40
2023-02-23T03:21:52.078Z,91.60
2023-02-23T03:24:45.983Z,91.70
2023-02-23T03:27:38.183Z,91.90
2023-02-23T03:30:33.605Z,91.90
2023-02-23T03:33:22.905Z,91.80
2023-02-23T03:36:13.193Z,91.80
2023-02-23T03:39:06.185Z,92.00
2023-02-23T03:41:54.585Z,92.30
2023-02-23T03:44:45.764Z,92.20
2023-02-23T03:47:33.996Z,92.30
2023-02-23T03:50:24.565Z,92.40
2023-02-23T03:53:14.613Z,92.70
2023-02-23T03:56:06.069Z,92.50
2023-02-23T03:58:57.502Z,92.60
2023-02-23T04:01:46.753Z,92.70
2023-02-23T04:04:32.033Z,93.50
2023-02-23T04:07:20.715Z,93.00
2023-02-23T04:10:07.177Z,93.20
2023-02-23T04:12:57.684Z,93.10
2023-02-23T04:15:30.132Z,93.50
2023-02-23T04:18:00.020Z,93.80
2023-02-23T04:20:28.905Z,93.60
2023-02-23T04:22:57.086Z,93.60
2023-02-23T04:25:25.064Z,94.30
2023-02-23T04:27:54.597Z,94.50
2023-02-23T04:30:25.659Z,94.30
2023-02-23T04:32:53.997Z,94.30
2023-02-23T04:35:23.655Z,94.60
2023-02-23T04:37:51.708Z,94.50
2023-02-23T04:40:19.952Z,94.60
2023-02-23T04:42:47.952Z,94.60
2023-02-23T04:45:16.129Z,94.50
2023-02-23T04:47:44.659Z,94.70
2023-02-23T04:50:13.351Z,94.80
2023-02-23T04:52:43.341Z,94.90
2023-02-23T04:55:18.153Z,94.80
2023-02-23T04:57:46.370Z,94.60
2023-02-23T05:00:15.742Z,94.30
2023-02-23T05:02:43.788Z,94.40
2023-02-23T05:05:12.230Z,94.60
2023-02-23T05:07:40.371Z,94.60
2023-02-23T05:10:11.308Z,94.80
2023-02-23T05:12:39.270Z,94.50
2023-02-23T05:15:08.522Z,93.70
2023-02-23T05:17:38.601Z,94.00
2023-02-23T05:20:07.525Z,93.60
2023-02-23T05:22:35.621Z,93.70
2023-02-23T05:25:04.218Z,93.50
2023-02-23T05:27:34.385Z,93.80
2023-02-23T05:30:02.501Z,93.90
2023-02-23T05:32:30.561Z,94.30
2023-02-23T05:34:58.569Z,93.90
2023-02-23T05:37:27.194Z,93.80
2023-02-23T05:39:55.474Z,93.70
2023-02-23T05:42:23.493Z,93.80
2023-02-23T05:44:52.855Z,93.80
2023-02-23T05:47:20.899Z,93.20
2023-02-23T05:49:48.966Z,93.00
2023-02-23T05:52:17.046Z,93.30
2023-02-23T05:54:46.609Z,93.40
2023-02-23T05:57:14.776Z,93.30
2023-02-23T05:59:42.818Z,93.20
2023-02-23T06:02:12.199Z,93.10
2023-02-23T06:04:40.555Z,92.90
2023-02-23T06:07:08.805Z,92.00
2023-02-23T06:09:36.875Z,92.50
2023-02-23T06:12:05.199Z,92.30
2023-02-23T06:14:33.402Z,92.60
2023-02-23T06:17:01.503Z,92.80
2023-02-23T06:19:31.684Z,93.30
2023-02-23T06:22:00.427Z,93.40
2023-02-23T06:24:28.728Z,93.00
2023-02-23T06:26:56.755Z,92.90
2023-02-23T06:29:24.857Z,93.30
2023-02-23T06:31:53.114Z,93.10
2023-02-23T06:34:21.364Z,93.00
2023-02-23T06:36:50.818Z,93.10
2023-02-23T06:39:18.752Z,92.90
2023-02-23T06:41:46.657Z,92.80
2023-02-23T06:44:14.765Z,92.90
2023-02-23T06:46:42.928Z,93.60
2023-02-23T06:49:13.145Z,93.90
2023-02-23T06:51:41.972Z,94.30
2023-02-23T06:54:11.287Z,93.90
2023-02-23T06:56:39.378Z,93.70
2023-02-23T06:59:07.430Z,94.10
2023-02-23T07:01:35.548Z,94.20
2023-02-23T07:04:03.658Z,93.60
2023-02-23T07:06:33.442Z,93.60
2023-02-23T07:09:01.462Z,93.60
2023-02-23T07:11:31.095Z,94.10
2023-02-23T07:13:59.500Z,93.60
2023-02-23T07:16:28.195Z,93.60
2023-02-23T07:18:56.422Z,93.40
2023-02-23T07:21:24.388Z,93.50
2023-02-23T07:23:52.393Z,93.40
2023-02-23T07:26:20.452Z,93.20
2023-02-23T07:28:49.839Z,93.10
2023-02-23T07:31:18.227Z,93.00
2023-02-23T07:33:46.565Z,93.20
2023-02-23T07:36:14.599Z,93.20
2023-02-23T07:38:42.771Z,93.20
2023-02-23T07:41:10.837Z,93.20
2023-02-23T07:43:38.838Z,93.30
2023-02-23T07:46:08.598Z,92.70
2023-02-23T07:48:36.677Z,93.60
2023-02-23T07:51:11.045Z,93.70
2023-02-23T07:53:39.476Z,93.50
2023-02-23T07:56:08.584Z,93.20
2023-02-23T07:58:36.611Z,93.20
2023-02-23T08:01:05.229Z,92.80
2023-02-23T08:03:34.653Z,93.40
2023-02-23T08:06:02.720Z,93.40
2023-02-23T08:08:30.694Z,93.60
2023-02-23T08:11:01.793Z,93.40
2023-02-23T08:13:31.805Z,93.00
2023-02-23T08:16:00.381Z,93.50
2023-02-23T08:18:28.570Z,94.20
2023-02-23T08:21:01.343Z,94.60
2023-02-23T08:23:30.466Z,94.50
2023-02-23T08:25:59.602Z,94.40
2023-02-23T08:28:28.084Z,94.40
2023-02-23T08:30:56.227Z,94.10
2023-02-23T08:33:24.534Z,94.30
2023-02-23T08:35:53.533Z,94.10
2023-02-23T08:38:22.929Z,94.20
2023-02-23T08:40:50.902Z,94.30
2023-02-23T08:43:18.851Z,93.40
2023-02-23T08:45:46.866Z,93.70
2023-02-23T08:48:14.876Z,93.60
2023-02-23T08:50:42.813Z,94.00
2023-02-23T08:53:10.797Z,93.20
2023-02-23T08:55:40.434Z,93.70
2023-02-23T08:58:10.659Z,94.00
2023-02-23T09:00:39.419Z,93.90
2023-02-23T09:03:08.021Z,94.20
2023-02-23T09:05:39.642Z,94.00
2023-02-23T09:08:07.817Z,94.30
2023-02-23T09:10:36.172Z,94.60
2023-02-23T09:13:05.952Z,94.90
2023-02-23T09:15:34.054Z,94.50
2023-02-23T09:18:02.766Z,95.20
2023-02-23T09:20:30.860Z,95.30
2023-02-23T09:22:58.896Z,94.40
2023-02-23T09:25:29.301Z,94.80
2023-02-23T09:27:59.536Z,94.80
2023-02-23T09:30:29.206Z,94.60
2023-02-23T09:33:06.581Z,94.40
2023-02-23T09:35:37.411Z,94.20
2023-02-23T09:38:07.072Z,94.00
2023-02-23T09:40:44.095Z,94.30
2023-02-23T09:43:16.321Z,94.50
2023-02-23T09:45:50.753Z,94.30
2023-02-23T09:48:21.641Z,93.90
2023-02-23T09:50:52.378Z,93.40
2023-02-23T09:53:33.949Z,93.40
2023-02-23T09:56:05.206Z,92.90
2023-02-23T09:58:35.879Z,93.10
2023-02-23T10:01:35.572Z,92.80
2023-02-23T10:04:11.614Z,92.40
2023-02-23T10:06:43.391Z,91.90
2023-02-23T10:09:19.920Z,92.20
2023-02-23T10:11:56.325Z,91.60
2023-02-23T10:14:48.366Z,92.50
2023-02-23T10:17:29.284Z,92.40
2023-02-23T10:20:04.340Z,92.10
2023-02-23T10:22:35.759Z,92.60
2023-02-23T10:25:08.942Z,92.30
2023-02-23T10:27:41.939Z,91.70
2023-02-23T10:30:19.860Z,91.90
2023-02-23T10:32:55.550Z,91.30
2023-02-23T10:35:24.491Z,92.10
2023-02-23T10:37:53.992Z,92.00
2023-02-23T10:40:24.519Z,91.10
2023-02-23T10:42:53.494Z,91.40
2023-02-23T10:45:24.544Z,92.20
2023-02-23T10:47:59.098Z,92.30
2023-02-23T10:50:28.957Z,91.70
2023-02-23T10:53:00.955Z,91.40
2023-02-23T10:55:30.932Z,91.40
2023-02-23T10:58:09.300Z,91.20
2023-02-23T11:00:40.200Z,91.10
2023-02-23T11:03:23.422Z,92.10
2023-02-23T11:05:53.577Z,92.40
2023-02-23T11:08:25.366Z,92.60
2023-02-23T11:11:05.709Z,93.20
2023-02-23T11:13:42.727Z,93.40
2023-02-23T11:16:14.118Z,93.50
2023-02-23T11:18:50.716Z,93.30
2023-02-23T11:21:24.262Z,94.00
2023-02-23T11:23:54.493Z,93.80
2023-02-23T11:26:29.389Z,93.60
2023-02-23T11:29:13.499Z,94.10
2023-02-23T11:31:46.977Z,94.00
2023-02-23T11:34:24.741Z,93.70
2023-02-23T11:37:08.683Z,94.50
2023-02-23T11:39:39.391Z,93.90
2023-02-23T11:42:20.044Z,93.70
2023-02-23T11:44:53.209Z,93.90
2023-02-23T11:47:23.680Z,93.80
2023-02-23T11:49:54.398Z,93.40
2023-02-23T11:52:25.965Z,94.00
2023-02-23T11:54:57.301Z,94.30
2023-02-23T11:57:28.900Z,94.30
2023-02-23T11:59:58.299Z,94.20
2023-02-23T12:02:27.825Z,93.90
2023-02-23T12:05:07.179Z,94.40
2023-02-23T12:07:41.650Z,94.40
2023-02-23T12:10:19.205Z,94.00
2023-02-23T12:12:56.850Z,94.00
2023-02-23T12:15:33.487Z,93.90
2023-02-23T12:18:08.359Z,94.20
2023-02-23T12:20:42.353Z,94.30
2023-02-23T12:23:14.235Z,95.30
2023-02-23T12:25:48.685Z,95.00
2023-02-23T12:28:26.029Z,94.90
2023-02-23T12:30:57.920Z,95.10
2023-02-23T12:33:33.844Z,94.90
2023-02-23T12:36:12.541Z,94.00
2023-02-23T12:38:50.412Z,93.40
2023-02-23T12:41:27.036Z,92.90
2023-02-23T12:44:00.582Z,93.40
2023-02-23T12:46:32.450Z,93.20
2023-02-23T12:49:07.904Z,93.40
2023-02-23T12:51:40.706Z,93.70
2023-02-23T12:54:10.491Z,93.60
2023-02-23T12:56:54.537Z,93.10
2023-02-23T12:59:40.963Z,93.70
2023-02-23T13:02:16.410Z,93.90
2023-02-23T13:05:12.967Z,94.00
2023-02-23T13:07:44.860Z,93.50
2023-02-23T13:10:23.592Z,93.70
2023-02-23T13:12:59.615Z,93.40
2023-02-23T13:15:38.058Z,92.60
2023-02-23T13:18:13.429Z,92.50
2023-02-23T13:20:48.886Z,93.10
2023-02-23T13:23:31.003Z,92.90
2023-02-23T13:26:05.674Z,92.40
2023-02-23T13:28:48.456Z,92.20
2023-02-23T13:31:24.482Z,92.50
2023-02-23T13:33:54.289Z,92.00
2023-02-23T13:36:23.474Z,91.60
2023-02-23T13:39:18.599Z,92.20
2023-02-23T13:41:53.942Z,92.40
2023-02-23T13:44:28.210Z,92.60
2023-02-23T13:47:01.603Z,92.40
2023-02-23T13:49:39.384Z,92.40
2023-02-23T13:52:17.676Z,92.70
2023-02-23T13:54:58.710Z,92.80
2023-02-23T13:57:28.984Z,92.40
2023-02-23T13:59:57.669Z,92.20
2023-02-23T14:02:38.050Z,92.40
2023-02-23T14:05:16.221Z,92.00
2023-02-23T14:07:47.327Z,91.70
2023-02-23T14:10:22.061Z,91.90
2023-02-23T14:13:09.665Z,91.20
2023-02-23T14:15:48.316Z,91.80
2023-02-23T14:18:31.913Z,91.60
2023-02-23T14:21:09.706Z,90.80
2023-02-23T14:23:49.957Z,91.60
2023-02-23T14:26:40.596Z,90.90
2023-02-23T14:29:31.755Z,90.60
2023-02-23T14:32:25.873Z,90.80
2023-02-23T14:34:56.987Z,90.80
2023-02-23T14:37:27.496Z,90.60
2023-02-23T14:40:01.049Z,90.10
2023-02-23T14:42:30.851Z,90.60
2023-02-23T14:45:05.524Z,90.50
2023-02-23T14:47:43.602Z,89.90
2023-02-23T14:50:18.052Z,89.60
2023-02-23T14:52:47.972Z,90.00
2023-02-23T14:55:23.350Z,89.80
2023-02-23T14:57:54.299Z,90.20
2023-02-23T15:00:25.230Z,90.30
2023-02-23T15:02:59.705Z,89.70
2023-02-23T15:05:29.775Z,89.60
2023-02-23T15:08:02.839Z,88.90
2023-02-23T15:10:34.606Z,88.50
2023-02-23T15:13:11.099Z,89.50
2023-02-23T15:15:45.253Z,89.50
2023-02-23T15:18:22.442Z,89.00
2023-02-23T15:20:51.342Z,89.60
2023-02-23T15:23:21.388Z,88.80
2023-02-23T15:26:00.186Z,89.10
2023-02-23T15:28:31.156Z,89.50
2023-02-23T15:31:02.337Z,88.70
2023-02-23T15:33:30.395Z,88.50
2023-02-23T15:36:08.340Z,88.60
2023-02-23T15:38:43.845Z,88.40
2023-02-23T15:41:22.969Z,88.20
2023-02-23T15:43:52.502Z,87.80
2023-02-23T15:46:26.085Z,88.00
2023-02-23T15:48:59.352Z,87.80
2023-02-23T15:51:34.735Z,88.00
2023-02-23T15:54:07.864Z,88.80
2023-02-23T15:56:36.327Z,88.50
2023-02-23T15:59:14.284Z,89.10
2023-02-23T16:01:46.420Z,89.00
2023-02-23T16:04:19.897Z,89.50
2023-02-23T16:06:52.884Z,89.20
2023-02-23T16:09:29.515Z,89.50
2023-02-23T16:12:03.132Z,88.80
2023-02-23T16:14:36.194Z,88.90
2023-02-23T16:17:11.260Z,88.90
2023-02-23T16:19:41.575Z,88.60
2023-02-23T16:22:21.105Z,88.30
2023-02-23T16:24:59.388Z,87.90
2023-02-23T16:27:29.430Z,87.80
2023-02-23T16:30:01.382Z,87.90
2023-02-23T16:32:42.101Z,87.20
2023-02-23T16:35:16.920Z,87.10
2023-02-23T16:38:00.096Z,87.40
2023-02-23T16:40:28.839Z,87.80
2023-02-23T16:42:59.453Z,87.60
2023-02-23T16:45:29.505Z,87.80
2023-02-23T16:48:02.117Z,87.60
2023-02-23T16:50:33.420Z,87.80
2023-02-23T16:53:02.125Z,88.60
2023-02-23T16:55:30.554Z,88.80
2023-02-23T16:58:01.321Z,88.90
2023-02-23T17:00:33.328Z,89.10
2023-02-23T17:03:01.487Z,89.10
2023-02-23T17:05:30.405Z,89.20
2023-02-23T17:07:59.296Z,89.30
2023-02-23T17:10:29.817Z,89.30
2023-02-23T17:12:59.856Z,89.10
2023-02-23T17:15:32.173Z,88.90
2023-02-23T17:18:00.136Z,88.60
2023-02-23T17:20:29.613Z,88.50
2023-02-23T17:22:59.732Z,89.00
2023-02-23T17:25:27.918Z,89.00
2023-02-23T17:27:57.226Z,89.50
2023-02-23T17:30:26.047Z,89.50
2023-02-23T17:32:57.417Z,90.40
2023-02-23T17:35:26.057Z,90.70
2023-02-23T17:37:54.365Z,91.00
2023-02-23T17:40:28.694Z,91.10
2023-02-23T17:42:58.095Z,91.00
2023-02-23T17:45:26.590Z,91.00
2023-02-23T17:47:56.316Z,91.40
2023-02-23T17:50:26.960Z,91.50
2023-02-23T17:52:55.221Z,91.20
2023-02-23T17:55:24.087Z,91.20
2023-02-23T17:57:52.105Z,91.60
2023-02-23T18:00:20.836Z,92.30
2023-02-23T18:02:49.239Z,93.50
2023-02-23T18:05:19.017Z,94.70
2023-02-23T18:07:48.656Z,94.50
2023-02-23T18:10:17.595Z,95.50
2023-02-23T18:12:45.868Z,95.60
2023-02-23T18:15:14.013Z,94.30
2023-02-23T18:17:41.961Z,94.30
2023-02-23T18:20:15.086Z,93.40
2023-02-23T18:22:45.238Z,93.50
2023-02-23T18:25:21.246Z,92.80
2023-02-23T18:27:53.896Z,93.00
2023-02-23T18:30:23.109Z,93.10
2023-02-23T18:32:52.403Z,92.90
2023-02-23T18:35:20.732Z,92.70
2023-02-23T18:37:50.685Z,92.60
2023-02-23T18:40:23.962Z,92.90
2023-02-23T18:42:52.105Z,93.50
2023-02-23T18:45:20.411Z,92.80
2023-02-23T18:47:48.815Z,92.80
2023-02-23T18:50:19.175Z,92.60
2023-02-23T18:52:50.707Z,92.50
2023-02-23T18:55:19.764Z,92.10
2023-02-23T18:57:47.956Z,92.20
2023-02-23T19:00:18.070Z,91.90
2023-02-23T19:02:47.142Z,91.60
2023-02-23T19:05:16.912Z,92.20
2023-02-23T19:07:45.112Z,91.90
2023-02-23T19:10:16.397Z,91.30
2023-02-23T19:12:44.518Z,91.80
2023-02-23T19:15:13.170Z,91.60
2023-02-23T19:17:41.633Z,91.50
2023-02-23T19:20:14.102Z,91.40
2023-02-23T19:22:42.861Z,91.00
2023-02-23T19:25:14.386Z,91.00
2023-02-23T19:27:44.274Z,90.30
2023-02-23T19:30:14.441Z,90.10
2023-02-23T19:32:43.261Z,89.70
2023-02-23T19:35:15.123Z,89.60
2023-02-23T19:37:48.500Z,89.70
2023-02-23T19:40:19.928Z,89.40
2023-02-23T19:42:49.872Z,89.50
2023-02-23T19:45:18.845Z,89.50
2023-02-23T19:47:47.083Z,89.40
2023-02-23T19:50:17.264Z,89.60
2023-02-23T19:52:46.077Z,89.80
2023-02-23T19:55:14.354Z,89.60
2023-02-23T19:57:42.901Z,89.80
2023-02-23T20:00:14.210Z,90.50
2023-02-23T20:02:43.742Z,90.50
2023-02-23T20:05:12.885Z,90.70
2023-02-23T20:07:41.150Z,90.80
2023-02-23T20:10:13.803Z,91.00
2023-02-23T20:12:42.075Z,91.00
2023-02-23T20:15:14.855Z,91.00
2023-02-23T20:17:43.112Z,91.10
2023-02-23T20:20:12.395Z,91.10
2023-02-23T20:22:42.064Z,90.90
2023-02-23T20:25:15.740Z,90.50
2023-02-23T20:27:45.187Z,89.30
2023-02-23T20:30:15.267Z,89.90
2023-02-23T20:32:43.659Z,90.00
2023-02-23T20:35:14.297Z,89.90
2023-02-23T20:37:42.694Z,89.60
2023-02-23T20:40:19.657Z,89.80
2023-02-23T20:42:49.110Z,90.00
2023-02-23T20:45:20.822Z,90.30
2023-02-23T20:47:51.985Z,90.30
2023-02-23T20:50:21.567Z,89.90
2023-02-23T20:52:50.141Z,89.60
2023-02-23T20:55:19.734Z,89.50
2023-02-23T20:57:48.628Z,90.00
2023-02-23T21:00:23.014Z,90.00
2023-02-23T21:02:55.477Z,90.20
2023-02-23T21:05:25.152Z,90.80
2023-02-23T21:07:53.720Z,90.90
2023-02-23T21:10:21.781Z,91.00
2023-02-23T21:12:49.781Z,90.90
2023-02-23T21:15:19.152Z,91.10
2023-02-23T21:17:47.161Z,91.00
2023-02-23T21:20:15.818Z,91.60
2023-02-23T21:22:44.023Z,91.50
2023-02-23T21:25:12.932Z,91.20
2023-02-23T21:27:40.897Z,91.20
2023-02-23T21:30:11.000Z,91.30
2023-02-23T21:32:42.132Z,91.30
2023-02-23T21:35:11.475Z,91.20
2023-02-23T21:37:39.887Z,90.90
2023-02-23T21:40:11.078Z,90.80
2023-02-23T21:42:40.331Z,90.80
2023-02-23T21:45:09.423Z,91.20
2023-02-23T21:47:38.186Z,91.10
2023-02-23T21:50:10.246Z,90.80
2023-02-23T21:52:38.601Z,90.80
2023-02-23T21:55:19.603Z,90.90
2023-02-23T21:57:48.878Z,91.20
2023-02-23T22:00:19.013Z,91.50
2023-02-23T22:02:47.416Z,91.40
2023-02-23T22:05:18.285Z,91.10
2023-02-23T22:07:49.474Z,91.10
2023-02-23T22:10:18.075Z,91.90
2023-02-23T22:12:46.001Z,92.10
2023-02-23T22:15:16.443Z,92.50
2023-02-23T22:17:44.459Z,92.60
2023-02-23T22:20:13.580Z,92.20
2023-02-23T22:22:42.979Z,92.60
2023-02-23T22:25:11.472Z,92.70
2023-02-23T22:27:41.557Z,92.10
2023-02-23T22:30:12.195Z,93.40
2023-02-23T22:32:40.813Z,94.30
2023-02-23T22:35:09.687Z,93.90
2023-02-23T22:37:39.041Z,93.70
2023-02-23T22:40:13.654Z,92.70
2023-02-23T22:42:43.272Z,93.00
2023-02-23T22:45:12.464Z,93.20
2023-02-23T22:47:40.460Z,92.90
2023-02-23T22:50:11.975Z,92.90
2023-02-23T22:52:40.701Z,92.70
2023-02-23T22:55:12.082Z,93.20
2023-02-23T22:57:40.776Z,92.90
2023-02-23T23:00:12.545Z,92.20
2023-02-23T23:02:40.587Z,92.60
2023-02-23T23:05:09.726Z,92.30
2023-02-23T23:07:37.750Z,92.60
2023-02-23T23:10:09.136Z,92.40
2023-02-23T23:12:40.205Z,92.00
2023-02-23T23:15:14.631Z,90.90
2023-02-23T23:17:48.056Z,92.10
2023-02-23T23:20:18.776Z,92.50
2023-02-23T23:22:46.738Z,92.80
2023-02-23T23:25:15.736Z,91.80
2023-02-23T23:27:45.938Z,91.60
2023-02-23T23:30:15.851Z,91.50
2023-02-23T23:32:44.039Z,91.30
2023-02-23T23:35:15.221Z,91.20
2023-02-23T23:37:43.293Z,91.80
2023-02-23T23:40:15.155Z,92.60
2023-02-23T23:42:46.101Z,92.80
2023-02-23T23:45:16.239Z,92.70
2023-02-23T23:47:45.007Z,92.10
2023-02-23T23:50:14.039Z,92.10
2023-02-23T23:52:43.484Z,92.00
2023-02-23T23:55:12.905Z,91.10
2023-02-23T23:57:41.371Z,90.70
